Pagina principale
METAR-TAF:

METAR-TAF

Aeroporti :

Amman, Giordania

latitudine: 31-59N, longitudine: 035-59E, altezza: 767 m

Osservazione

Il bollettino è stato emesso 1 ora e 5 minuti fa, alle 05:00 UTC
Vento calmo
Temperature 11°C
Umidità 71%
Pressione 1024 hPa
Visibilità: 5000 m
foschia

METAR: OJAM 200500Z 00000KT 5000 HZ NSC 11/06 Q1024 NOSIG

Ora: 08:05 (06:05 UTC)

Previsione

Il bollettino è stato emesso 1 ora e 15 minuti fa, alle 04:50 UTC
Previsione valida dal 20 alle 06 UTC al 21 alle 12 UTC
Vento 2 kt da direzioni variabili
Visibilità: 5000 m
foschia
Temporaneamente
dal 20 alle 12 UTC al 20 alle 16 UTC
Vento 12 kt da est/sud-est

TAF: OJAM 200450Z 2006/2112 VRB02KT 5000 HZ NSC TEMPO 2012/2016 12012KT

Osservazioni e previsioni meteorologiche di più di 4000 aeroporti (messaggi METAR e TAF).

Le stazioni disponibili sono rappresentate dai dischi gialli e rossi sulla carta.

Puntare il mouse per vedere il nome della stazione.

Clicca sopra per visualizzare le osservazioni e previsioni meteorologiche.

Per cambiare la mappa : fare clic sui pulsanti verdi con una croce nera per ingrandire, il pulsante verde con un trattino per diminuire, o sulla freccia verde per le mappe adiacenti.


METAR-TAF: